This is the latest recevied weather packets stored in our database for station/object OH6HPS. If no packets are shown the sender has not sent any weather packets the latest 1 day(s).
| Time | Temp. | Humidity | Pressure | Rain* | Wind** | Luminosity | Snow |
|---|---|---|---|---|---|---|---|
| 1836274720 | 14.44° C | 97% | 1006.7 hPa | 0.51 mm | 0.89 m/s, 154° | 0 W/m² | - |
| 1836274570 | 14.44° C | 97% | 1006.6 hPa | 0.51 mm | 0 m/s | 0 W/m² | - |
| 1836274119 | 14.44° C | 97% | 1006.7 hPa | 0.51 mm | 0 m/s | 0 W/m² | - |
| 1778054126 | 10° C | 43% | 1012.5 hPa | 0 mm | 0.89 m/s, 231° | 160 W/m² | - |
| 1778053526 | 10.56° C | 41% | 1012.3 hPa | 0 mm | 1.79 m/s, 238° | 716 W/m² | - |
| 1778052926 | 10.56° C | 43% | 1012.2 hPa | 0 mm | 2.68 m/s, 234° | 686 W/m² | - |
| 1778052325 | 10° C | 46% | 1012.1 hPa | 0 mm | 2.24 m/s, 217° | 644 W/m² | - |
| 1778051725 | 10° C | 45% | 1012.2 hPa | 0 mm | 1.34 m/s, 116° | 565 W/m² | - |
| 1778051126 | 9.44° C | 48% | 1012 hPa | 0 mm | 1.79 m/s, 206° | 528 W/m² | - |
| 1778050525 | 9.44° C | 52% | 1012 hPa | 0 mm | 1.79 m/s, 227° | 501 W/m² | - |
| 1778049923 | 9.44° C | 48% | 1011.9 hPa | 0 mm | 1.79 m/s, 288° | 480 W/m² | - |
| 1778049322 | 8.89° C | 52% | 1012 hPa | 0 mm | 0.45 m/s, 252° | 464 W/m² | - |
| 1778048723 | 8.89° C | 55% | 1011.9 hPa | 0 mm | 0.89 m/s, 200° | 441 W/m² | - |
| 1778048122 | 8.33° C | 60% | 1011.9 hPa | 0 mm | 1.34 m/s, 235° | 419 W/m² | - |
| 1778047522 | 7.78° C | 64% | 1011.8 hPa | 0 mm | 1.79 m/s, 250° | 396 W/m² | - |
| 1778046921 | 7.22° C | 67% | 1011.7 hPa | 0 mm | 0.89 m/s, 257° | 362 W/m² | - |
| 1778046322 | 7.22° C | 70% | 1011.6 hPa | 0 mm | 0.89 m/s, 224° | 283 W/m² | - |
| 1778045721 | 6.67° C | 69% | 1011.5 hPa | 0 mm | 0.89 m/s, 207° | 250 W/m² | - |
| 1778045121 | 6.67° C | 71% | 1011.5 hPa | 0 mm | 0.45 m/s, 217° | 208 W/m² | - |
| 1778044520 | 6.11° C | 73% | 1011.4 hPa | 0 mm | 0.89 m/s, 281° | 252 W/m² | - |
| 1778043921 | 5.56° C | 75% | 1011.3 hPa | 0 mm | 0.89 m/s, 237° | 225 W/m² | - |
| 1778043320 | 5.56° C | 77% | 1011.2 hPa | 0 mm | 0.89 m/s, 259° | 202 W/m² | - |
| 1778042721 | 4.44° C | 80% | 1011.2 hPa | 0 mm | 1.34 m/s, 196° | 222 W/m² | - |
| 1778042119 | 3.89° C | 84% | 1011.1 hPa | 0 mm | 0.89 m/s, 200° | 202 W/m² | - |
| 1778041520 | 2.78° C | 87% | 1011 hPa | 0 mm | 0.45 m/s, 233° | 181 W/m² | - |
* Rain latest hour (hover to see other rain measurements)
** Current wind speed in m/s (hover to see current wind gust speed)